Página principal
METAR-TAF:

METAR-TAF

Aeroportos :

Ilha de São Vicente, Cabo Verde

Aeroporto de São Pedro

latitude: 16-49-59N, longitude: 25-03-25W, altura: 20 m

Observação actual do tempo

O boletim foi feito há 55 minutos, às 02:00 UTC
Vento 22 kt de nordeste
Temperatura 23°C
Humidade 69%
Pressão 1016 hPa
Visibilidade 10 km ou mais
Poucas nuvensa uma altura de 2000 ft

METAR: GVSV 230200Z 05022KT 9999 FEW020 23/17 Q1016 NOSIG

Hora: 01:55 (02:55 UTC)

Previsão

O boletim foi feito há 3 horas e 55 minutos, às 23:00 UTC
Previsão válida de 23 às 00 UTC a 24 às 06 UTC
Vento 20 kt de nordeste
Visibilidade 10 km ou mais
Nuvens dispersasa uma altura de 2200 ft
Probabilidade 40% :
Temporariamente
de 23 às 12 UTC a 23 às 18 UTC
Vento 20 kt de nordeste com rajadas de 30 kt

TAF: GVSV 222300Z 2300/2406 05020KT 9999 SCT022 PROB40 TEMPO 2312/2318 05020G30KT

Observações e previsões do tempo de mais de 4000 aeroportos (mensagens METAR e TAF).

As estações disponíveis são os pontos amarelos e vermelhos sobre o mapa.

Mova o rato sobre o mapa para ver o nome da estação.

Depois clique no ponto para visualizar as observações e previsões meteorológicas.

Para alterar o mapa : clique nos botões verdes com uma cruz preta para aumentar o zoom; no botão verde com uma pitada de zoom; ou nas setas verdes para mapas adjacentes.


METAR-TAF: